sensor_id;sensor_type;location;lat;lon;timestamp;P1;durP1;ratioP1;P2;durP2;ratioP2
50549;SDS011;36505;52.512;13.460;2022-12-17T00:00:21;90.68;;;28.65;;
50549;SDS011;36505;52.512;13.460;2022-12-17T00:03:07;79.30;;;27.15;;
50549;SDS011;36505;52.512;13.460;2022-12-17T00:05:52;72.47;;;26.25;;
50549;SDS011;36505;52.512;13.460;2022-12-17T00:08:36;73.10;;;27.15;;
50549;SDS011;36505;52.512;13.460;2022-12-17T00:11:20;62.80;;;23.27;;
50549;SDS011;36505;52.512;13.460;2022-12-17T00:14:04;57.25;;;22.67;;
50549;SDS011;36505;52.512;13.460;2022-12-17T00:16:51;58.67;;;21.88;;
50549;SDS011;36505;52.512;13.460;2022-12-17T00:19:35;52.08;;;21.35;;
50549;SDS011;36505;52.512;13.460;2022-12-17T00:22:19;63.25;;;23.05;;
50549;SDS011;36505;52.512;13.460;2022-12-17T00:25:03;55.15;;;20.65;;
50549;SDS011;36505;52.512;13.460;2022-12-17T00:27:48;58.53;;;23.55;;
50549;SDS011;36505;52.512;13.460;2022-12-17T00:30:32;72.07;;;24.17;;
50549;SDS011;36505;52.512;13.460;2022-12-17T00:33:16;60.35;;;21.95;;
50549;SDS011;36505;52.512;13.460;2022-12-17T00:36:00;65.05;;;24.92;;
50549;SDS011;36505;52.512;13.460;2022-12-17T00:38:44;57.70;;;22.58;;
50549;SDS011;36505;52.512;13.460;2022-12-17T00:41:28;59.40;;;23.00;;
50549;SDS011;36505;52.512;13.460;2022-12-17T00:44:12;62.60;;;22.13;;
50549;SDS011;36505;52.512;13.460;2022-12-17T00:46:56;55.85;;;20.95;;
50549;SDS011;36505;52.512;13.460;2022-12-17T00:49:43;58.50;;;20.45;;
50549;SDS011;36505;52.512;13.460;2022-12-17T00:52:27;57.78;;;20.98;;
50549;SDS011;36505;52.512;13.460;2022-12-17T00:55:11;56.45;;;21.83;;
50549;SDS011;36505;52.512;13.460;2022-12-17T00:57:55;63.60;;;23.25;;
50549;SDS011;36505;52.512;13.460;2022-12-17T01:00:40;57.85;;;20.58;;
50549;SDS011;36505;52.512;13.460;2022-12-17T01:03:24;52.42;;;21.40;;
50549;SDS011;36505;52.512;13.460;2022-12-17T01:06:08;55.30;;;20.02;;
50549;SDS011;36505;52.512;13.460;2022-12-17T01:08:53;53.45;;;20.13;;
50549;SDS011;36505;52.512;13.460;2022-12-17T01:11:37;64.35;;;22.00;;
50549;SDS011;36505;52.512;13.460;2022-12-17T01:14:21;64.05;;;21.15;;
50549;SDS011;36505;52.512;13.460;2022-12-17T01:17:10;63.63;;;22.42;;
50549;SDS011;36505;52.512;13.460;2022-12-17T01:19:54;67.97;;;22.08;;
50549;SDS011;36505;52.512;13.460;2022-12-17T01:22:38;59.55;;;21.00;;
50549;SDS011;36505;52.512;13.460;2022-12-17T01:25:22;65.63;;;20.63;;
50549;SDS011;36505;52.512;13.460;2022-12-17T01:28:05;61.40;;;21.88;;
50549;SDS011;36505;52.512;13.460;2022-12-17T01:30:49;62.10;;;21.77;;
50549;SDS011;36505;52.512;13.460;2022-12-17T01:33:33;65.25;;;22.45;;
50549;SDS011;36505;52.512;13.460;2022-12-17T01:36:17;63.50;;;21.70;;
50549;SDS011;36505;52.512;13.460;2022-12-17T01:39:01;69.03;;;22.40;;
50549;SDS011;36505;52.512;13.460;2022-12-17T01:41:46;57.30;;;20.50;;
50549;SDS011;36505;52.512;13.460;2022-12-17T01:47:36;64.00;;;22.65;;
50549;SDS011;36505;52.512;13.460;2022-12-17T01:50:25;62.47;;;24.10;;
50549;SDS011;36505;52.512;13.460;2022-12-17T01:53:12;71.22;;;22.48;;
50549;SDS011;36505;52.512;13.460;2022-12-17T01:56:00;68.07;;;23.48;;
50549;SDS011;36505;52.512;13.460;2022-12-17T01:58:44;66.47;;;21.58;;
50549;SDS011;36505;52.512;13.460;2022-12-17T02:01:29;69.30;;;24.65;;
50549;SDS011;36505;52.512;13.460;2022-12-17T02:04:13;62.45;;;21.40;;
50549;SDS011;36505;52.512;13.460;2022-12-17T02:07:00;75.00;;;24.38;;
50549;SDS011;36505;52.512;13.460;2022-12-17T02:13:44;73.53;;;25.50;;
50549;SDS011;36505;52.512;13.460;2022-12-17T02:16:42;77.32;;;24.15;;
50549;SDS011;36505;52.512;13.460;2022-12-17T02:28:15;73.03;;;24.60;;
50549;SDS011;36505;52.512;13.460;2022-12-17T02:30:59;65.78;;;22.48;;
50549;SDS011;36505;52.512;13.460;2022-12-17T02:33:43;64.53;;;22.20;;
50549;SDS011;36505;52.512;13.460;2022-12-17T02:36:28;62.40;;;21.65;;
50549;SDS011;36505;52.512;13.460;2022-12-17T02:39:11;67.20;;;23.13;;
50549;SDS011;36505;52.512;13.460;2022-12-17T02:41:55;68.13;;;24.63;;
50549;SDS011;36505;52.512;13.460;2022-12-17T02:44:40;68.45;;;23.08;;
50549;SDS011;36505;52.512;13.460;2022-12-17T02:47:26;75.90;;;24.73;;
50549;SDS011;36505;52.512;13.460;2022-12-17T02:50:11;68.72;;;23.02;;
50549;SDS011;36505;52.512;13.460;2022-12-17T02:52:57;78.65;;;24.80;;
50549;SDS011;36505;52.512;13.460;2022-12-17T02:55:42;63.75;;;22.90;;
50549;SDS011;36505;52.512;13.460;2022-12-17T02:58:26;67.93;;;24.08;;
50549;SDS011;36505;52.512;13.460;2022-12-17T03:01:10;75.82;;;23.23;;
50549;SDS011;36505;52.512;13.460;2022-12-17T03:03:54;72.40;;;25.48;;
50549;SDS011;36505;52.512;13.460;2022-12-17T03:06:38;74.82;;;24.35;;
50549;SDS011;36505;52.512;13.460;2022-12-17T03:09:22;72.72;;;26.08;;
50549;SDS011;36505;52.512;13.460;2022-12-17T03:12:05;69.63;;;22.13;;
50549;SDS011;36505;52.512;13.460;2022-12-17T03:14:49;66.28;;;23.58;;
50549;SDS011;36505;52.512;13.460;2022-12-17T03:17:34;69.13;;;24.38;;
50549;SDS011;36505;52.512;13.460;2022-12-17T03:20:18;65.65;;;23.15;;
50549;SDS011;36505;52.512;13.460;2022-12-17T03:23:06;68.40;;;24.45;;
50549;SDS011;36505;52.512;13.460;2022-12-17T03:25:52;66.70;;;23.30;;
50549;SDS011;36505;52.512;13.460;2022-12-17T03:28:36;61.38;;;22.95;;
50549;SDS011;36505;52.512;13.460;2022-12-17T03:31:20;63.03;;;22.98;;
50549;SDS011;36505;52.512;13.460;2022-12-17T03:34:04;57.05;;;21.40;;
50549;SDS011;36505;52.512;13.460;2022-12-17T03:36:48;64.03;;;22.42;;
50549;SDS011;36505;52.512;13.460;2022-12-17T03:39:32;61.47;;;23.77;;
50549;SDS011;36505;52.512;13.460;2022-12-17T03:42:16;63.65;;;22.85;;
50549;SDS011;36505;52.512;13.460;2022-12-17T03:45:00;69.35;;;24.33;;
50549;SDS011;36505;52.512;13.460;2022-12-17T03:47:44;53.95;;;19.83;;
50549;SDS011;36505;52.512;13.460;2022-12-17T03:50:28;55.15;;;21.27;;
50549;SDS011;36505;52.512;13.460;2022-12-17T03:53:12;56.25;;;19.33;;
50549;SDS011;36505;52.512;13.460;2022-12-17T03:55:56;64.40;;;20.42;;
50549;SDS011;36505;52.512;13.460;2022-12-17T03:58:40;64.53;;;21.40;;
50549;SDS011;36505;52.512;13.460;2022-12-17T04:01:24;52.53;;;18.77;;
50549;SDS011;36505;52.512;13.460;2022-12-17T04:04:27;56.83;;;20.02;;
50549;SDS011;36505;52.512;13.460;2022-12-17T04:07:11;55.38;;;20.00;;
50549;SDS011;36505;52.512;13.460;2022-12-17T04:09:55;57.22;;;19.75;;
50549;SDS011;36505;52.512;13.460;2022-12-17T04:12:39;59.83;;;20.88;;
50549;SDS011;36505;52.512;13.460;2022-12-17T04:15:23;54.17;;;19.05;;
50549;SDS011;36505;52.512;13.460;2022-12-17T04:18:07;54.17;;;20.38;;
50549;SDS011;36505;52.512;13.460;2022-12-17T04:20:51;49.60;;;18.67;;
50549;SDS011;36505;52.512;13.460;2022-12-17T04:23:35;45.38;;;17.83;;
50549;SDS011;36505;52.512;13.460;2022-12-17T04:26:18;59.58;;;18.88;;
50549;SDS011;36505;52.512;13.460;2022-12-17T04:29:03;58.30;;;19.95;;
50549;SDS011;36505;52.512;13.460;2022-12-17T04:31:46;53.13;;;19.30;;
50549;SDS011;36505;52.512;13.460;2022-12-17T04:34:30;48.95;;;17.52;;
50549;SDS011;36505;52.512;13.460;2022-12-17T04:37:14;55.35;;;19.17;;
50549;SDS011;36505;52.512;13.460;2022-12-17T04:39:58;51.42;;;19.70;;
50549;SDS011;36505;52.512;13.460;2022-12-17T04:42:42;56.92;;;18.80;;
50549;SDS011;36505;52.512;13.460;2022-12-17T04:45:26;48.53;;;17.83;;
50549;SDS011;36505;52.512;13.460;2022-12-17T04:48:10;53.35;;;18.40;;
50549;SDS011;36505;52.512;13.460;2022-12-17T04:50:54;69.80;;;22.63;;
50549;SDS011;36505;52.512;13.460;2022-12-17T04:53:38;54.05;;;18.75;;
50549;SDS011;36505;52.512;13.460;2022-12-17T04:56:22;53.30;;;19.40;;
50549;SDS011;36505;52.512;13.460;2022-12-17T04:59:06;67.30;;;22.08;;
50549;SDS011;36505;52.512;13.460;2022-12-17T05:01:50;62.47;;;21.90;;
50549;SDS011;36505;52.512;13.460;2022-12-17T05:04:34;64.10;;;21.65;;
50549;SDS011;36505;52.512;13.460;2022-12-17T05:07:17;57.20;;;19.60;;
50549;SDS011;36505;52.512;13.460;2022-12-17T05:10:02;61.00;;;20.98;;
50549;SDS011;36505;52.512;13.460;2022-12-17T05:12:46;52.05;;;18.23;;
50549;SDS011;36505;52.512;13.460;2022-12-17T05:15:30;61.05;;;19.40;;
50549;SDS011;36505;52.512;13.460;2022-12-17T05:18:14;48.10;;;18.15;;
50549;SDS011;36505;52.512;13.460;2022-12-17T05:20:58;60.28;;;18.42;;
50549;SDS011;36505;52.512;13.460;2022-12-17T05:23:42;54.80;;;19.13;;
50549;SDS011;36505;52.512;13.460;2022-12-17T05:26:27;56.70;;;18.10;;
50549;SDS011;36505;52.512;13.460;2022-12-17T05:29:11;57.95;;;19.90;;
50549;SDS011;36505;52.512;13.460;2022-12-17T05:31:55;50.35;;;18.08;;
50549;SDS011;36505;52.512;13.460;2022-12-17T05:34:39;58.85;;;20.30;;
50549;SDS011;36505;52.512;13.460;2022-12-17T05:37:23;58.58;;;20.30;;
50549;SDS011;36505;52.512;13.460;2022-12-17T05:40:08;54.47;;;18.83;;
50549;SDS011;36505;52.512;13.460;2022-12-17T05:42:56;60.78;;;19.67;;
50549;SDS011;36505;52.512;13.460;2022-12-17T05:45:41;45.92;;;17.30;;
50549;SDS011;36505;52.512;13.460;2022-12-17T05:48:26;51.72;;;18.20;;
50549;SDS011;36505;52.512;13.460;2022-12-17T05:51:10;51.90;;;18.52;;
50549;SDS011;36505;52.512;13.460;2022-12-17T05:53:54;55.35;;;19.27;;
50549;SDS011;36505;52.512;13.460;2022-12-17T05:56:55;71.95;;;26.67;;
50549;SDS011;36505;52.512;13.460;2022-12-17T05:59:39;58.72;;;22.52;;
50549;SDS011;36505;52.512;13.460;2022-12-17T06:02:23;52.63;;;20.45;;
50549;SDS011;36505;52.512;13.460;2022-12-17T06:05:07;49.38;;;19.35;;
50549;SDS011;36505;52.512;13.460;2022-12-17T06:07:51;56.67;;;20.67;;
50549;SDS011;36505;52.512;13.460;2022-12-17T06:10:35;58.83;;;18.75;;
50549;SDS011;36505;52.512;13.460;2022-12-17T06:13:19;57.22;;;19.90;;
50549;SDS011;36505;52.512;13.460;2022-12-17T06:16:03;53.80;;;19.15;;
50549;SDS011;36505;52.512;13.460;2022-12-17T06:18:47;56.58;;;19.30;;
50549;SDS011;36505;52.512;13.460;2022-12-17T06:21:31;48.92;;;18.65;;
50549;SDS011;36505;52.512;13.460;2022-12-17T06:24:15;55.85;;;20.45;;
50549;SDS011;36505;52.512;13.460;2022-12-17T06:26:59;52.25;;;18.83;;
50549;SDS011;36505;52.512;13.460;2022-12-17T06:29:43;46.55;;;18.83;;
50549;SDS011;36505;52.512;13.460;2022-12-17T06:32:27;46.03;;;17.55;;
50549;SDS011;36505;52.512;13.460;2022-12-17T06:35:11;43.15;;;17.08;;
50549;SDS011;36505;52.512;13.460;2022-12-17T06:38:02;43.53;;;16.55;;
50549;SDS011;36505;52.512;13.460;2022-12-17T06:40:48;50.65;;;19.88;;
50549;SDS011;36505;52.512;13.460;2022-12-17T06:43:33;57.20;;;20.27;;
50549;SDS011;36505;52.512;13.460;2022-12-17T06:46:16;47.80;;;18.73;;
50549;SDS011;36505;52.512;13.460;2022-12-17T06:49:00;49.47;;;19.35;;
50549;SDS011;36505;52.512;13.460;2022-12-17T06:51:44;47.08;;;17.67;;
50549;SDS011;36505;52.512;13.460;2022-12-17T06:54:28;46.15;;;19.17;;
50549;SDS011;36505;52.512;13.460;2022-12-17T06:57:12;48.00;;;18.92;;
50549;SDS011;36505;52.512;13.460;2022-12-17T06:59:57;41.50;;;18.45;;
50549;SDS011;36505;52.512;13.460;2022-12-17T07:02:41;52.95;;;19.88;;
50549;SDS011;36505;52.512;13.460;2022-12-17T07:05:25;43.50;;;17.67;;
50549;SDS011;36505;52.512;13.460;2022-12-17T07:08:09;45.97;;;17.33;;
50549;SDS011;36505;52.512;13.460;2022-12-17T07:10:53;40.42;;;17.48;;
50549;SDS011;36505;52.512;13.460;2022-12-17T07:13:37;42.63;;;17.25;;
50549;SDS011;36505;52.512;13.460;2022-12-17T07:16:21;54.03;;;17.98;;
50549;SDS011;36505;52.512;13.460;2022-12-17T07:19:05;44.90;;;17.70;;
50549;SDS011;36505;52.512;13.460;2022-12-17T07:21:49;44.38;;;16.80;;
50549;SDS011;36505;52.512;13.460;2022-12-17T07:24:33;39.20;;;16.63;;
50549;SDS011;36505;52.512;13.460;2022-12-17T07:27:17;49.03;;;17.38;;
50549;SDS011;36505;52.512;13.460;2022-12-17T07:30:01;48.38;;;17.95;;
50549;SDS011;36505;52.512;13.460;2022-12-17T07:32:45;48.35;;;18.63;;
50549;SDS011;36505;52.512;13.460;2022-12-17T07:35:29;46.88;;;18.70;;
50549;SDS011;36505;52.512;13.460;2022-12-17T07:38:13;57.53;;;22.50;;
50549;SDS011;36505;52.512;13.460;2022-12-17T07:40:57;50.40;;;19.45;;
50549;SDS011;36505;52.512;13.460;2022-12-17T07:43:58;62.42;;;20.67;;
50549;SDS011;36505;52.512;13.460;2022-12-17T07:46:42;52.80;;;18.42;;
50549;SDS011;36505;52.512;13.460;2022-12-17T07:49:26;58.15;;;20.83;;
50549;SDS011;36505;52.512;13.460;2022-12-17T07:52:10;59.38;;;21.25;;
50549;SDS011;36505;52.512;13.460;2022-12-17T07:54:54;55.92;;;19.63;;
50549;SDS011;36505;52.512;13.460;2022-12-17T07:57:37;50.38;;;19.48;;
50549;SDS011;36505;52.512;13.460;2022-12-17T08:00:21;52.20;;;18.55;;
50549;SDS011;36505;52.512;13.460;2022-12-17T08:03:05;46.33;;;18.42;;
50549;SDS011;36505;52.512;13.460;2022-12-17T08:05:49;47.47;;;17.52;;
50549;SDS011;36505;52.512;13.460;2022-12-17T08:08:33;53.55;;;20.65;;
50549;SDS011;36505;52.512;13.460;2022-12-17T08:11:17;52.92;;;21.15;;
50549;SDS011;36505;52.512;13.460;2022-12-17T08:14:01;49.22;;;20.35;;
50549;SDS011;36505;52.512;13.460;2022-12-17T08:16:45;54.60;;;20.67;;
50549;SDS011;36505;52.512;13.460;2022-12-17T08:19:29;53.15;;;20.85;;
50549;SDS011;36505;52.512;13.460;2022-12-17T08:22:16;50.67;;;20.83;;
50549;SDS011;36505;52.512;13.460;2022-12-17T08:25:00;55.75;;;22.30;;
50549;SDS011;36505;52.512;13.460;2022-12-17T08:27:44;54.88;;;21.65;;
50549;SDS011;36505;52.512;13.460;2022-12-17T08:30:28;47.55;;;19.90;;
50549;SDS011;36505;52.512;13.460;2022-12-17T08:33:12;54.28;;;18.60;;
50549;SDS011;36505;52.512;13.460;2022-12-17T08:35:56;47.03;;;18.90;;
50549;SDS011;36505;52.512;13.460;2022-12-17T08:38:40;49.42;;;20.52;;
50549;SDS011;36505;52.512;13.460;2022-12-17T08:41:24;53.30;;;19.08;;
50549;SDS011;36505;52.512;13.460;2022-12-17T08:44:08;50.50;;;19.10;;
50549;SDS011;36505;52.512;13.460;2022-12-17T08:46:52;47.72;;;20.80;;
50549;SDS011;36505;52.512;13.460;2022-12-17T08:49:36;49.95;;;21.05;;
50549;SDS011;36505;52.512;13.460;2022-12-17T08:52:20;53.00;;;21.75;;
50549;SDS011;36505;52.512;13.460;2022-12-17T08:55:07;48.20;;;20.63;;
50549;SDS011;36505;52.512;13.460;2022-12-17T08:57:55;51.63;;;20.65;;
50549;SDS011;36505;52.512;13.460;2022-12-17T09:00:40;49.78;;;20.88;;
50549;SDS011;36505;52.512;13.460;2022-12-17T09:03:25;50.60;;;19.10;;
50549;SDS011;36505;52.512;13.460;2022-12-17T09:06:10;52.53;;;22.48;;
50549;SDS011;36505;52.512;13.460;2022-12-17T09:08:54;50.58;;;20.65;;
50549;SDS011;36505;52.512;13.460;2022-12-17T09:11:37;47.45;;;20.65;;
50549;SDS011;36505;52.512;13.460;2022-12-17T09:14:21;52.08;;;20.92;;
50549;SDS011;36505;52.512;13.460;2022-12-17T09:17:05;51.28;;;20.65;;
50549;SDS011;36505;52.512;13.460;2022-12-17T09:19:49;44.50;;;18.90;;
50549;SDS011;36505;52.512;13.460;2022-12-17T09:22:33;47.58;;;21.13;;
50549;SDS011;36505;52.512;13.460;2022-12-17T09:25:17;50.95;;;20.20;;
50549;SDS011;36505;52.512;13.460;2022-12-17T09:28:01;48.13;;;20.60;;
50549;SDS011;36505;52.512;13.460;2022-12-17T09:30:46;42.47;;;18.45;;
50549;SDS011;36505;52.512;13.460;2022-12-17T09:33:29;41.45;;;18.73;;
50549;SDS011;36505;52.512;13.460;2022-12-17T09:36:13;37.47;;;17.15;;
50549;SDS011;36505;52.512;13.460;2022-12-17T09:38:57;41.65;;;19.30;;
50549;SDS011;36505;52.512;13.460;2022-12-17T09:45:24;44.78;;;18.92;;
50549;SDS011;36505;52.512;13.460;2022-12-17T09:48:28;41.35;;;18.90;;
50549;SDS011;36505;52.512;13.460;2022-12-17T09:51:34;43.92;;;19.05;;
50549;SDS011;36505;52.512;13.460;2022-12-17T09:57:16;44.97;;;20.25;;
50549;SDS011;36505;52.512;13.460;2022-12-17T10:05:41;43.55;;;19.00;;
50549;SDS011;36505;52.512;13.460;2022-12-17T10:08:27;46.65;;;20.05;;
50549;SDS011;36505;52.512;13.460;2022-12-17T10:11:19;44.30;;;19.02;;
50549;SDS011;36505;52.512;13.460;2022-12-17T10:14:10;51.47;;;20.77;;
50549;SDS011;36505;52.512;13.460;2022-12-17T10:16:58;47.10;;;18.38;;
50549;SDS011;36505;52.512;13.460;2022-12-17T10:19:42;59.78;;;23.33;;
50549;SDS011;36505;52.512;13.460;2022-12-17T10:22:27;54.90;;;21.30;;
50549;SDS011;36505;52.512;13.460;2022-12-17T10:25:15;51.60;;;21.35;;
50549;SDS011;36505;52.512;13.460;2022-12-17T10:28:03;60.47;;;20.73;;
50549;SDS011;36505;52.512;13.460;2022-12-17T10:30:48;49.53;;;20.55;;
50549;SDS011;36505;52.512;13.460;2022-12-17T10:33:35;49.53;;;21.60;;
50549;SDS011;36505;52.512;13.460;2022-12-17T10:36:22;52.80;;;21.40;;
50549;SDS011;36505;52.512;13.460;2022-12-17T10:39:21;48.65;;;19.88;;
50549;SDS011;36505;52.512;13.460;2022-12-17T10:48:41;55.58;;;21.60;;
50549;SDS011;36505;52.512;13.460;2022-12-17T10:51:19;49.13;;;19.98;;
50549;SDS011;36505;52.512;13.460;2022-12-17T10:54:25;50.80;;;19.73;;
50549;SDS011;36505;52.512;13.460;2022-12-17T11:00:31;53.72;;;20.08;;
50549;SDS011;36505;52.512;13.460;2022-12-17T11:06:24;55.75;;;21.52;;
50549;SDS011;36505;52.512;13.460;2022-12-17T11:09:26;57.30;;;22.17;;
50549;SDS011;36505;52.512;13.460;2022-12-17T11:12:21;54.35;;;20.45;;
50549;SDS011;36505;52.512;13.460;2022-12-17T11:15:14;57.22;;;22.48;;
50549;SDS011;36505;52.512;13.460;2022-12-17T11:18:22;76.22;;;25.25;;
50549;SDS011;36505;52.512;13.460;2022-12-17T11:21:33;59.97;;;23.33;;
50549;SDS011;36505;52.512;13.460;2022-12-17T11:24:24;52.72;;;20.17;;
50549;SDS011;36505;52.512;13.460;2022-12-17T11:27:14;63.80;;;25.95;;
50549;SDS011;36505;52.512;13.460;2022-12-17T11:30:01;60.13;;;23.70;;
50549;SDS011;36505;52.512;13.460;2022-12-17T11:33:06;64.22;;;22.75;;
50549;SDS011;36505;52.512;13.460;2022-12-17T11:38:59;58.50;;;22.00;;
50549;SDS011;36505;52.512;13.460;2022-12-17T11:47:49;60.00;;;23.25;;
50549;SDS011;36505;52.512;13.460;2022-12-17T11:50:38;58.10;;;23.50;;
50549;SDS011;36505;52.512;13.460;2022-12-17T12:00:02;60.35;;;22.55;;
50549;SDS011;36505;52.512;13.460;2022-12-17T12:03:23;69.68;;;25.17;;
50549;SDS011;36505;52.512;13.460;2022-12-17T12:09:16;66.05;;;23.42;;
50549;SDS011;36505;52.512;13.460;2022-12-17T12:12:09;80.03;;;27.27;;
50549;SDS011;36505;52.512;13.460;2022-12-17T12:18:22;60.85;;;24.20;;
50549;SDS011;36505;52.512;13.460;2022-12-17T12:21:34;76.15;;;26.42;;
50549;SDS011;36505;52.512;13.460;2022-12-17T12:27:28;63.90;;;26.52;;
50549;SDS011;36505;52.512;13.460;2022-12-17T12:30:22;67.47;;;25.00;;
50549;SDS011;36505;52.512;13.460;2022-12-17T12:36:01;67.00;;;25.13;;
50549;SDS011;36505;52.512;13.460;2022-12-17T12:38:50;69.78;;;25.50;;
50549;SDS011;36505;52.512;13.460;2022-12-17T12:47:24;71.63;;;26.55;;
50549;SDS011;36505;52.512;13.460;2022-12-17T12:53:24;57.40;;;23.52;;
50549;SDS011;36505;52.512;13.460;2022-12-17T12:56:27;80.40;;;27.25;;
50549;SDS011;36505;52.512;13.460;2022-12-17T12:59:20;69.20;;;26.30;;
50549;SDS011;36505;52.512;13.460;2022-12-17T13:05:32;68.50;;;24.00;;
50549;SDS011;36505;52.512;13.460;2022-12-17T13:08:16;72.65;;;26.60;;
50549;SDS011;36505;52.512;13.460;2022-12-17T13:10:44;58.35;;;22.35;;
50549;SDS011;36505;52.512;13.460;2022-12-17T13:13:12;58.47;;;22.60;;
50549;SDS011;36505;52.512;13.460;2022-12-17T13:15:52;61.33;;;22.65;;
50549;SDS011;36505;52.512;13.460;2022-12-17T13:21:02;50.28;;;19.85;;
50549;SDS011;36505;52.512;13.460;2022-12-17T13:23:48;56.33;;;21.45;;
50549;SDS011;36505;52.512;13.460;2022-12-17T13:26:30;51.42;;;22.73;;
50549;SDS011;36505;52.512;13.460;2022-12-17T13:39:53;57.45;;;21.67;;
50549;SDS011;36505;52.512;13.460;2022-12-17T13:42:36;64.28;;;22.85;;
50549;SDS011;36505;52.512;13.460;2022-12-17T13:45:02;65.28;;;22.45;;
50549;SDS011;36505;52.512;13.460;2022-12-17T13:47:29;72.75;;;27.02;;
50549;SDS011;36505;52.512;13.460;2022-12-17T13:49:59;62.40;;;22.85;;
50549;SDS011;36505;52.512;13.460;2022-12-17T13:52:27;71.45;;;24.58;;
50549;SDS011;36505;52.512;13.460;2022-12-17T13:54:53;63.00;;;23.70;;
50549;SDS011;36505;52.512;13.460;2022-12-17T13:57:30;59.35;;;22.80;;
50549;SDS011;36505;52.512;13.460;2022-12-17T13:59:58;73.22;;;28.90;;
50549;SDS011;36505;52.512;13.460;2022-12-17T14:02:30;67.75;;;24.50;;
50549;SDS011;36505;52.512;13.460;2022-12-17T14:04:57;60.05;;;22.95;;
50549;SDS011;36505;52.512;13.460;2022-12-17T14:07:26;74.32;;;27.60;;
50549;SDS011;36505;52.512;13.460;2022-12-17T14:09:53;65.38;;;25.63;;
50549;SDS011;36505;52.512;13.460;2022-12-17T14:12:21;59.55;;;22.90;;
50549;SDS011;36505;52.512;13.460;2022-12-17T14:17:26;63.22;;;24.05;;
50549;SDS011;36505;52.512;13.460;2022-12-17T14:22:42;60.65;;;23.17;;
50549;SDS011;36505;52.512;13.460;2022-12-17T14:25:15;50.30;;;20.80;;
50549;SDS011;36505;52.512;13.460;2022-12-17T14:30:24;63.13;;;20.65;;
50549;SDS011;36505;52.512;13.460;2022-12-17T14:32:59;48.75;;;19.23;;
50549;SDS011;36505;52.512;13.460;2022-12-17T14:35:28;54.00;;;20.35;;
50549;SDS011;36505;52.512;13.460;2022-12-17T14:38:03;56.97;;;19.63;;
50549;SDS011;36505;52.512;13.460;2022-12-17T14:40:28;52.22;;;20.83;;
50549;SDS011;36505;52.512;13.460;2022-12-17T14:42:57;53.60;;;19.55;;
50549;SDS011;36505;52.512;13.460;2022-12-17T14:45:25;57.25;;;21.83;;
50549;SDS011;36505;52.512;13.460;2022-12-17T14:47:52;53.33;;;20.05;;
50549;SDS011;36505;52.512;13.460;2022-12-17T14:52:46;62.95;;;22.40;;
50549;SDS011;36505;52.512;13.460;2022-12-17T14:55:20;56.75;;;20.17;;
50549;SDS011;36505;52.512;13.460;2022-12-17T14:57:47;51.70;;;19.33;;
50549;SDS011;36505;52.512;13.460;2022-12-17T15:00:13;62.47;;;21.08;;
50549;SDS011;36505;52.512;13.460;2022-12-17T15:02:39;64.45;;;21.08;;
50549;SDS011;36505;52.512;13.460;2022-12-17T15:05:10;59.65;;;21.10;;
50549;SDS011;36505;52.512;13.460;2022-12-17T15:07:38;56.15;;;21.33;;
50549;SDS011;36505;52.512;13.460;2022-12-17T15:10:08;50.47;;;24.00;;
50549;SDS011;36505;52.512;13.460;2022-12-17T15:12:35;54.00;;;18.77;;
50549;SDS011;36505;52.512;13.460;2022-12-17T15:15:01;58.80;;;20.27;;
50549;SDS011;36505;52.512;13.460;2022-12-17T15:17:26;58.25;;;20.52;;
50549;SDS011;36505;52.512;13.460;2022-12-17T15:19:51;76.28;;;29.00;;
50549;SDS011;36505;52.512;13.460;2022-12-17T15:22:17;62.85;;;24.25;;
50549;SDS011;36505;52.512;13.460;2022-12-17T15:24:43;55.63;;;20.23;;
50549;SDS011;36505;52.512;13.460;2022-12-17T15:27:15;66.18;;;25.15;;
50549;SDS011;36505;52.512;13.460;2022-12-17T15:29:42;49.45;;;18.95;;
50549;SDS011;36505;52.512;13.460;2022-12-17T15:32:16;59.72;;;21.73;;
50549;SDS011;36505;52.512;13.460;2022-12-17T15:34:43;58.08;;;22.42;;
50549;SDS011;36505;52.512;13.460;2022-12-17T15:37:08;55.00;;;20.33;;
50549;SDS011;36505;52.512;13.460;2022-12-17T15:39:34;52.40;;;21.13;;
50549;SDS011;36505;52.512;13.460;2022-12-17T15:41:59;57.58;;;20.52;;
50549;SDS011;36505;52.512;13.460;2022-12-17T15:44:43;54.42;;;20.35;;
50549;SDS011;36505;52.512;13.460;2022-12-17T15:47:08;53.42;;;20.77;;
50549;SDS011;36505;52.512;13.460;2022-12-17T15:49:34;52.08;;;20.77;;
50549;SDS011;36505;52.512;13.460;2022-12-17T15:51:59;53.80;;;19.33;;
50549;SDS011;36505;52.512;13.460;2022-12-17T15:54:24;61.38;;;19.83;;
50549;SDS011;36505;52.512;13.460;2022-12-17T15:56:50;58.80;;;20.48;;
50549;SDS011;36505;52.512;13.460;2022-12-17T15:59:17;53.80;;;22.05;;
50549;SDS011;36505;52.512;13.460;2022-12-17T16:01:42;67.03;;;23.15;;
50549;SDS011;36505;52.512;13.460;2022-12-17T16:04:08;70.03;;;24.13;;
50549;SDS011;36505;52.512;13.460;2022-12-17T16:06:33;72.93;;;23.60;;
50549;SDS011;36505;52.512;13.460;2022-12-17T16:08:58;65.75;;;23.15;;
50549;SDS011;36505;52.512;13.460;2022-12-17T16:11:24;61.28;;;22.35;;
50549;SDS011;36505;52.512;13.460;2022-12-17T16:13:53;76.43;;;26.63;;
50549;SDS011;36505;52.512;13.460;2022-12-17T16:16:19;58.83;;;21.25;;
50549;SDS011;36505;52.512;13.460;2022-12-17T16:18:45;58.03;;;22.33;;
50549;SDS011;36505;52.512;13.460;2022-12-17T16:21:10;52.03;;;20.65;;
50549;SDS011;36505;52.512;13.460;2022-12-17T16:23:36;59.85;;;20.67;;
50549;SDS011;36505;52.512;13.460;2022-12-17T16:26:02;58.75;;;21.95;;
50549;SDS011;36505;52.512;13.460;2022-12-17T16:28:29;62.08;;;21.55;;
50549;SDS011;36505;52.512;13.460;2022-12-17T16:31:02;64.25;;;20.65;;
50549;SDS011;36505;52.512;13.460;2022-12-17T16:33:34;51.70;;;20.23;;
50549;SDS011;36505;52.512;13.460;2022-12-17T16:36:00;56.78;;;20.10;;
50549;SDS011;36505;52.512;13.460;2022-12-17T16:38:26;60.42;;;20.80;;
50549;SDS011;36505;52.512;13.460;2022-12-17T16:40:55;59.67;;;19.83;;
50549;SDS011;36505;52.512;13.460;2022-12-17T16:43:22;55.40;;;20.15;;
50549;SDS011;36505;52.512;13.460;2022-12-17T16:45:49;61.42;;;21.63;;
50549;SDS011;36505;52.512;13.460;2022-12-17T16:48:16;50.92;;;19.30;;
50549;SDS011;36505;52.512;13.460;2022-12-17T16:50:43;62.95;;;25.00;;
50549;SDS011;36505;52.512;13.460;2022-12-17T16:53:09;56.65;;;22.40;;
50549;SDS011;36505;52.512;13.460;2022-12-17T16:55:38;59.45;;;19.48;;
50549;SDS011;36505;52.512;13.460;2022-12-17T16:58:05;57.55;;;23.13;;
50549;SDS011;36505;52.512;13.460;2022-12-17T17:00:30;58.00;;;21.38;;
50549;SDS011;36505;52.512;13.460;2022-12-17T17:02:56;58.90;;;21.35;;
50549;SDS011;36505;52.512;13.460;2022-12-17T17:05:22;55.67;;;21.70;;
50549;SDS011;36505;52.512;13.460;2022-12-17T17:07:47;64.65;;;22.05;;
50549;SDS011;36505;52.512;13.460;2022-12-17T17:10:12;63.13;;;22.73;;
50549;SDS011;36505;52.512;13.460;2022-12-17T17:12:38;63.60;;;23.17;;
50549;SDS011;36505;52.512;13.460;2022-12-17T17:15:03;61.97;;;24.05;;